Terminal Aerodrome Forecast
Issued by NWS

Home | Current Version | Previous Version | Text Only | Print | Product List | Glossary On
Versions: 1 2 3 4 5 6 7 8 9 10 11 12
288
FTUS43 KIND 261125
TAFHUF
TAF
KHUF 261125Z 2612/2712 18008KT P6SM VCSH OVC010
     FM261400 19010KT P6SM VCSH OVC020
     FM261800 21012G20KT P6SM VCSH OVC040
     FM262200 23011KT P6SM BKN040
     FM270000 24007KT P6SM BKN060
     FM270500 21004KT P6SM SCT080
     FM270900 VRB03KT P6SM BKN090=

USA.gov is the U.S. government's official web portal to all federal, state and local government web resources and services.